Elon, NC

10:26 EDT le 01 avril 2015 (GMT -0400)
Burlington | | Change Station
CLOSE
Current Station
Stations météorologiques personnelles
Location: Burlington, NC
Altitude: 646 ft
Stations météo à proximité

Alt. 646 ft 36.10 °N, 79.47 °W | Updated 3 minutes ago

Ciel dégagé
Ciel dégagé
57.9 ° F
Paraît 57.9 ° F
N
3.2
Vent Variable Vent de NE

Aujourd'hui
Haut(e) -- | Bas -- ° F
--% Risque de précip.
Hier
Haut(e) -- | Bas -- ° F
Precip. -- pouce
7:04 AM 7:39 PM
Lune gibbeuse croissante, 93% visible
Pression 30.09 pouce
Visibilité 10.0 Miles terrestres
Nuages Ciel dégagé
Point de rosée 43 ° F
Humidité 58%
Précipitations 0.00 pouce
Profondeur de la couche neigeuse Non disponible.
UV 3 sur 12
Pollen 10.40 sur 12
Qualité de l'air Non disponible.
Flu Activity Non disponible.
METAR KBUY 011354Z AUTO 05006KT 10SM CLR 13/04 A3010 RMK AO2 SLP189 T01280039

More Conditions Fewer Conditions

Pression 30.09 pouce
Visibilité 10.0 Miles terrestres
Nuages Ciel dégagé
Point de rosée 43 ° F
Humidité 58%
Précipitations 0.00 pouce
Profondeur de la couche neigeuse Non disponible.
UV 3 sur 12
Pollen 10.40 sur 12
Qualité de l'air Non disponible.
Flu Activity Non disponible.
METAR KBUY 011354Z AUTO 05006KT 10SM CLR 13/04 A3010 RMK AO2 SLP189 T01280039

More Conditions Fewer Conditions

10-Day Weather Forecast

Almanac

Astronomie

Apr. 01, 2015 Lever Coucher
Temps réel
Crépuscule civil
Crépuscule nautique
Crépuscule astronomique
Lune
Durée de lumière visible
Longueur du jour
Tomorrow will be .
, % of the Moon is Illuminated

Extrêmes aujourd'hui

State Highs State Lows

Community

WunderPhotos

Upload Photos

1,809,962 Photos téléchargées !

WunderBlogs® & News

Nearby

Qualité de l'air

  Qualité de l'air Indice de la qualité de l'air Polluant
Not available.

Épaisseur de neige

Station Depth Altitude

Activité sismique

Ville Distance Mag. Time & Date
Minimum magnitude displayed is 2.5.

Températures des eaux côtières

Lieu Température

Stations

Stations météo à proximité

Emplacement de la station Température Refroidissement éolien Point de rosée Humidité Vent Precip. Alt. Mise à jour Type